Terminal Aerodrome Forecast
Issued by NWS North Platte, NE

Home | Current Version | Previous Version | Text Only | Print | Product List | Glossary On
Versions: 1 2 3 4 5 6 7 8 9 10 11 12 13 14 15 16 17 18 19 20 21 22 23 24 25 26 27 28 29
000
FTUS43 KLBF 022300
TAFVTN
TAF
KVTN 022323Z 0300/0324 17010KT P6SM SCT080
     FM030300 18012KT P6SM SKC
     FM031100 19009KT 5SM BR SKC
     FM031600 22012KT P6SM SKC
     FM032100 22012KT P6SM SCT150=

USA.gov is the U.S. government's official web portal to all federal, state and local government web resources and services.